Time;durP1;ratioP1;P1;durP2;ratioP2;P2;SDS_P1;SDS_P2;PMS_P1;PMS_P2;Temp;Humidity;BMP_temperature;BMP_pressure;BME280_temperature;BME280_humidity;BME280_pressure;Samples;Min_cycle;Max_cycle;Signal;HPM_P1;HPM_P2
2021/09/22 00:00:52;;;;;;;5.07;4.60;;;9.10;99.90;;;;;;4975354;28;20639;-69
2021/09/22 00:03:17;;;;;;;4.87;4.47;;;9.10;99.90;;;;;;4974289;28;20238;-70
2021/09/22 00:05:43;;;;;;;4.00;3.60;;;9.00;99.90;;;;;;4974514;28;20180;-70
2021/09/22 00:08:08;;;;;;;5.90;5.20;;;9.00;99.90;;;;;;4956481;28;20168;-70
2021/09/22 00:10:34;;;;;;;5.30;4.80;;;9.00;99.90;;;;;;4974082;28;20213;-70
2021/09/22 00:13:00;;;;;;;5.60;4.97;;;9.00;99.90;;;;;;4991130;28;20194;-69
2021/09/22 00:15:26;;;;;;;5.53;5.03;;;9.00;99.90;;;;;;4976231;28;20267;-70
2021/09/22 00:17:52;;;;;;;8.35;6.13;;;9.00;99.90;;;;;;4995111;28;20545;-69
2021/09/22 00:20:23;;;;;;;5.75;4.90;;;9.00;99.90;;;;;;4988003;28;20200;-69
2021/09/22 00:22:49;;;;;;;5.43;4.60;;;9.00;99.90;;;;;;4977971;28;20231;-70
2021/09/22 00:25:15;;;;;;;5.68;5.00;;;8.90;99.90;;;;;;4980144;28;20532;-70
2021/09/22 00:27:42;;;;;;;6.47;4.93;;;8.90;99.90;;;;;;4985208;28;20271;-70
2021/09/22 00:30:09;;;;;;;6.43;5.15;;;8.80;99.90;;;;;;4977711;28;20226;-70
2021/09/22 00:32:34;;;;;;;6.22;5.55;;;8.80;99.90;;;;;;4977435;28;20179;-70
2021/09/22 00:35:00;;;;;;;7.90;4.93;;;8.80;99.90;;;;;;4991927;28;20175;-69
2021/09/22 00:37:26;;;;;;;6.97;4.43;;;8.80;99.90;;;;;;4996800;28;20222;-69
2021/09/22 00:39:52;;;;;;;8.70;5.30;;;8.70;99.90;;;;;;4995023;28;20233;-69
2021/09/22 00:42:18;;;;;;;6.47;5.60;;;8.70;99.90;;;;;;4996065;28;20314;-69
2021/09/22 00:44:56;;;;;;;4.57;4.20;;;8.80;99.90;;;;;;4996971;28;20250;-68
2021/09/22 00:47:22;;;;;;;6.60;5.60;;;8.70;99.90;;;;;;4996446;28;20414;-69
2021/09/22 00:49:48;;;;;;;7.47;5.10;;;8.70;99.90;;;;;;4996554;28;20793;-69
2021/09/22 00:52:16;;;;;;;5.23;4.70;;;8.70;99.90;;;;;;4996742;28;20274;-69
2021/09/22 00:54:42;;;;;;;4.45;4.05;;;8.70;99.90;;;;;;4996391;28;20270;-69
2021/09/22 00:57:10;;;;;;;5.95;5.43;;;8.70;99.90;;;;;;4976252;28;20586;-70
2021/09/22 00:59:36;;;;;;;6.03;5.43;;;8.70;99.90;;;;;;4978543;28;20253;-69
2021/09/22 01:02:03;;;;;;;8.40;4.57;;;8.70;99.90;;;;;;4996284;28;20682;-69
2021/09/22 01:04:29;;;;;;;6.07;4.60;;;8.70;99.90;;;;;;4995968;28;20762;-70
2021/09/22 01:06:54;;;;;;;9.27;5.17;;;8.70;99.90;;;;;;4995793;28;20216;-69
2021/09/22 01:09:21;;;;;;;9.63;5.70;;;8.60;99.90;;;;;;4994731;28;20265;-70
2021/09/22 01:11:47;;;;;;;6.22;5.07;;;8.60;99.90;;;;;;4976852;28;20168;-70
2021/09/22 01:14:13;;;;;;;9.83;5.90;;;8.60;99.90;;;;;;4959601;28;20538;-69
2021/09/22 01:16:45;;;;;;;6.68;5.70;;;8.60;99.90;;;;;;4976810;28;20440;-69
2021/09/22 01:19:12;;;;;;;6.45;5.85;;;8.50;99.90;;;;;;4977076;28;20206;-69
2021/09/22 01:21:43;;;;;;;7.68;5.30;;;8.50;99.90;;;;;;4976703;28;20179;-69
2021/09/22 01:24:09;;;;;;;7.35;5.53;;;8.50;99.90;;;;;;4978411;28;20175;-69
2021/09/22 01:26:35;;;;;;;12.60;5.00;;;8.40;99.90;;;;;;4984153;28;20215;-70
2021/09/22 01:29:00;;;;;;;6.90;4.73;;;8.40;99.90;;;;;;4976385;28;20191;-69
2021/09/22 01:31:26;;;;;;;7.00;5.60;;;8.40;99.90;;;;;;4976635;28;20255;-70
2021/09/22 01:33:52;;;;;;;7.73;4.47;;;8.40;99.90;;;;;;4976444;28;20191;-69
2021/09/22 01:36:18;;;;;;;9.88;5.72;;;8.40;99.90;;;;;;4976530;28;20207;-69
2021/09/22 01:38:43;;;;;;;7.50;5.90;;;8.40;99.90;;;;;;4976184;28;20233;-70
2021/09/22 01:41:10;;;;;;;5.50;4.40;;;8.40;99.90;;;;;;4996038;28;20183;-69
2021/09/22 01:43:38;;;;;;;5.40;4.93;;;8.30;99.90;;;;;;4995822;28;20545;-69
2021/09/22 01:46:08;;;;;;;7.97;5.65;;;8.30;99.90;;;;;;4995721;28;20171;-69
2021/09/22 01:48:34;;;;;;;5.97;4.72;;;8.30;99.90;;;;;;4995287;28;20230;-69
2021/09/22 01:51:02;;;;;;;6.37;5.00;;;8.30;99.90;;;;;;4995653;28;20221;-69
2021/09/22 01:53:28;;;;;;;6.03;4.60;;;8.40;99.90;;;;;;4973575;28;20185;-69
2021/09/22 01:55:56;;;;;;;5.00;4.45;;;8.30;99.90;;;;;;4977164;28;20685;-68
2021/09/22 01:58:22;;;;;;;5.00;4.50;;;8.30;99.90;;;;;;4975642;28;20179;-68
2021/09/22 02:00:49;;;;;;;8.10;5.93;;;8.30;99.90;;;;;;4959566;28;20187;-69
2021/09/22 02:03:16;;;;;;;7.15;5.95;;;8.30;99.90;;;;;;4975845;28;20606;-69
2021/09/22 02:05:42;;;;;;;5.32;4.88;;;8.30;99.90;;;;;;4977053;28;20175;-69
2021/09/22 02:08:09;;;;;;;6.28;5.60;;;8.20;99.90;;;;;;4958024;28;20564;-69
2021/09/22 02:10:35;;;;;;;5.53;5.03;;;8.20;99.90;;;;;;4975508;28;20608;-70
2021/09/22 02:13:00;;;;;;;6.37;5.37;;;8.10;99.90;;;;;;4975716;28;20259;-69
2021/09/22 02:15:26;;;;;;;6.03;5.37;;;8.20;99.90;;;;;;4975692;28;20175;-69
2021/09/22 02:17:52;;;;;;;5.65;4.80;;;8.10;99.90;;;;;;4975342;28;20175;-69
2021/09/22 02:20:18;;;;;;;6.00;4.90;;;8.10;99.90;;;;;;4976669;28;20737;-69
2021/09/22 02:22:43;;;;;;;7.43;4.90;;;8.10;99.90;;;;;;4981073;28;20198;-69
2021/09/22 02:25:11;;;;;;;5.20;4.70;;;8.10;99.90;;;;;;4994877;28;20193;-70
2021/09/22 02:27:37;;;;;;;4.93;3.70;;;8.10;99.90;;;;;;4994813;28;20164;-69
2021/09/22 02:30:05;;;;;;;7.85;5.55;;;8.10;99.90;;;;;;4977282;28;20206;-69
2021/09/22 02:32:31;;;;;;;6.80;4.65;;;8.00;99.90;;;;;;4994915;28;20660;-70
2021/09/22 02:34:56;;;;;;;7.17;4.23;;;8.00;99.90;;;;;;4981859;28;20179;-69
2021/09/22 02:37:22;;;;;;;9.67;6.73;;;7.90;99.90;;;;;;4975080;28;20584;-69
2021/09/22 02:39:48;;;;;;;8.73;7.47;;;7.90;99.90;;;;;;4974593;28;20195;-69
2021/09/22 02:42:13;;;;;;;11.83;9.20;;;7.90;99.90;;;;;;4975121;28;20198;-69
2021/09/22 02:44:39;;;;;;;9.43;8.20;;;7.90;99.90;;;;;;4975245;28;20206;-69
2021/09/22 02:47:05;;;;;;;8.17;7.10;;;7.90;99.90;;;;;;4991320;28;20175;-69
2021/09/22 02:49:30;;;;;;;9.93;8.60;;;7.90;99.90;;;;;;4983069;28;20201;-70
2021/09/22 02:51:56;;;;;;;8.00;5.80;;;7.90;99.90;;;;;;4958027;28;20653;-69
2021/09/22 02:54:22;;;;;;;7.80;6.30;;;7.90;99.90;;;;;;4975113;28;20179;-69
2021/09/22 02:56:47;;;;;;;7.50;6.23;;;7.80;99.90;;;;;;4974580;28;20262;-69
2021/09/22 02:59:13;;;;;;;11.73;7.33;;;7.80;99.90;;;;;;4974827;28;20211;-69
2021/09/22 03:01:39;;;;;;;8.70;6.43;;;7.80;99.90;;;;;;4974763;28;20174;-69
2021/09/22 03:04:05;;;;;;;8.37;6.43;;;7.80;99.90;;;;;;4984267;28;20520;-68
2021/09/22 03:06:30;;;;;;;7.77;5.73;;;7.80;99.90;;;;;;4994177;28;20399;-70
2021/09/22 03:08:56;;;;;;;4.50;3.93;;;7.80;99.90;;;;;;4976647;28;20193;-69
2021/09/22 03:11:22;;;;;;;6.27;5.73;;;7.90;99.90;;;;;;4994603;28;20167;-69
2021/09/22 03:13:47;;;;;;;6.60;5.10;;;7.80;99.90;;;;;;4994210;28;20171;-69
2021/09/22 03:16:13;;;;;;;5.47;4.47;;;7.80;99.90;;;;;;4983834;28;20184;-69
2021/09/22 03:18:39;;;;;;;6.40;5.80;;;7.80;99.90;;;;;;4982227;28;20199;-69
2021/09/22 03:21:05;;;;;;;7.10;6.05;;;7.70;99.90;;;;;;4992177;28;20187;-69
2021/09/22 03:23:32;;;;;;;12.35;6.65;;;7.70;99.90;;;;;;4994029;28;20289;-69
2021/09/22 03:25:59;;;;;;;8.32;7.10;;;7.70;99.90;;;;;;4994045;28;20230;-68
2021/09/22 03:28:25;;;;;;;7.80;5.97;;;7.70;99.90;;;;;;4993602;28;20580;-69
2021/09/22 03:30:51;;;;;;;6.55;5.35;;;7.70;99.90;;;;;;4994144;28;20590;-69
2021/09/22 03:33:17;;;;;;;6.40;5.40;;;7.70;99.90;;;;;;4993909;28;20198;-69
2021/09/22 03:35:44;;;;;;;7.90;6.57;;;7.70;99.90;;;;;;4993692;28;20423;-70
2021/09/22 03:38:11;;;;;;;7.05;6.22;;;7.60;99.90;;;;;;4993405;28;20411;-69
2021/09/22 03:40:37;;;;;;;7.72;5.85;;;7.60;99.90;;;;;;4976204;28;20197;-69
2021/09/22 03:43:03;;;;;;;8.32;5.60;;;7.60;99.90;;;;;;4993759;28;20669;-69
2021/09/22 03:45:29;;;;;;;8.77;5.85;;;7.60;99.90;;;;;;4992049;28;20654;-69
2021/09/22 03:47:55;;;;;;;7.45;5.28;;;7.60;99.90;;;;;;4991037;28;20175;-69
2021/09/22 03:50:21;;;;;;;12.47;6.30;;;7.60;99.90;;;;;;4974239;28;20218;-69
2021/09/22 03:52:46;;;;;;;5.37;4.43;;;7.70;99.90;;;;;;4977827;28;20503;-69
2021/09/22 03:55:12;;;;;;;5.47;5.07;;;7.60;99.90;;;;;;4978341;28;20176;-69
2021/09/22 03:57:38;;;;;;;6.10;4.30;;;7.60;99.90;;;;;;4977975;28;20182;-69
2021/09/22 04:00:05;;;;;;;7.13;6.13;;;7.60;99.90;;;;;;4977924;28;20453;-66
2021/09/22 04:02:30;;;;;;;4.53;4.13;;;7.60;99.90;;;;;;4977914;28;20294;-67
2021/09/22 04:04:56;;;;;;;8.97;5.57;;;7.50;99.90;;;;;;4978100;28;20776;-68
2021/09/22 04:07:22;;;;;;;6.83;5.40;;;7.50;99.90;;;;;;4977655;28;20167;-68
2021/09/22 04:09:47;;;;;;;6.43;5.20;;;7.50;99.90;;;;;;4960577;28;20658;-68
2021/09/22 04:12:13;;;;;;;4.77;4.30;;;7.50;99.90;;;;;;4978006;28;20639;-68
2021/09/22 04:14:38;;;;;;;6.17;5.53;;;7.40;99.90;;;;;;4960645;28;20182;-69
2021/09/22 04:17:04;;;;;;;5.20;4.57;;;7.40;99.90;;;;;;4977451;28;20193;-68
2021/09/22 04:19:30;;;;;;;5.73;5.27;;;7.50;99.90;;;;;;4961638;28;20207;-69
2021/09/22 04:21:55;;;;;;;6.60;6.00;;;7.40;99.90;;;;;;4977625;28;20210;-66
2021/09/22 04:24:21;;;;;;;5.30;4.90;;;7.50;99.90;;;;;;4977704;28;20186;-68
2021/09/22 04:26:47;;;;;;;4.90;3.90;;;7.40;99.90;;;;;;4977373;28;20491;-67
2021/09/22 04:29:12;;;;;;;4.60;3.43;;;7.40;99.90;;;;;;4977491;28;20195;-68
2021/09/22 04:31:40;;;;;;;5.20;4.27;;;7.40;99.90;;;;;;4990184;28;20533;-68
2021/09/22 04:34:06;;;;;;;8.45;6.03;;;7.30;99.90;;;;;;4996303;28;20652;-68
2021/09/22 04:36:31;;;;;;;6.87;6.17;;;7.30;99.90;;;;;;4982197;28;20192;-68
2021/09/22 04:38:57;;;;;;;6.63;5.40;;;7.30;99.90;;;;;;4977143;28;20198;-67
2021/09/22 04:41:23;;;;;;;8.27;6.30;;;7.30;99.90;;;;;;4977707;28;20201;-67
2021/09/22 04:43:49;;;;;;;4.53;4.13;;;7.30;99.90;;;;;;4977415;28;20680;-67
2021/09/22 04:46:15;;;;;;;5.90;5.30;;;7.20;99.90;;;;;;4978188;28;20187;-67
2021/09/22 04:48:41;;;;;;;7.10;5.18;;;7.30;99.90;;;;;;4977049;28;20514;-68
2021/09/22 04:51:07;;;;;;;5.70;5.18;;;7.20;99.90;;;;;;4983742;28;20189;-68
2021/09/22 04:53:33;;;;;;;5.38;4.88;;;7.20;99.90;;;;;;4996574;28;20189;-68
2021/09/22 04:55:59;;;;;;;5.70;4.60;;;7.20;99.90;;;;;;4996639;28;20253;-68
2021/09/22 04:58:25;;;;;;;6.20;5.60;;;7.20;99.90;;;;;;4996022;28;20398;-68
2021/09/22 05:00:50;;;;;;;8.60;5.73;;;7.20;99.90;;;;;;4992930;28;20187;-68
2021/09/22 05:03:16;;;;;;;15.80;7.47;;;7.20;99.90;;;;;;4995897;28;20609;-68
2021/09/22 05:05:43;;;;;;;6.23;4.80;;;7.20;99.90;;;;;;4988334;28;20215;-67
2021/09/22 05:08:09;;;;;;;4.25;3.70;;;7.20;99.90;;;;;;4976464;28;20239;-68
2021/09/22 05:10:35;;;;;;;7.53;5.63;;;7.20;99.90;;;;;;4976667;28;20661;-67
2021/09/22 05:13:01;;;;;;;8.63;6.73;;;7.20;99.90;;;;;;4977221;28;20430;-69
2021/09/22 05:15:27;;;;;;;5.97;5.40;;;7.20;99.90;;;;;;4976719;28;20677;-69
2021/09/22 05:17:54;;;;;;;6.60;5.10;;;7.20;99.90;;;;;;4976271;28;20578;-68
2021/09/22 05:20:20;;;;;;;4.72;3.80;;;7.30;99.90;;;;;;4976406;28;20620;-69
2021/09/22 05:22:46;;;;;;;7.25;5.90;;;7.30;99.90;;;;;;4976253;28;20202;-68
2021/09/22 05:25:12;;;;;;;5.30;4.80;;;7.30;99.90;;;;;;4985301;28;20170;-67
2021/09/22 05:27:37;;;;;;;5.70;4.70;;;7.30;99.90;;;;;;4993724;28;20232;-69
2021/09/22 05:30:04;;;;;;;6.00;5.43;;;7.30;99.90;;;;;;4995350;28;20450;-69
2021/09/22 05:32:29;;;;;;;8.77;4.95;;;7.30;99.90;;;;;;4995955;28;20178;-69
2021/09/22 05:34:57;;;;;;;7.70;6.50;;;7.30;99.90;;;;;;4995807;28;20170;-69
2021/09/22 05:37:23;;;;;;;6.43;4.13;;;7.30;99.90;;;;;;4994753;28;20199;-68
2021/09/22 05:39:49;;;;;;;7.40;6.70;;;7.30;99.90;;;;;;4985465;28;20241;-68
2021/09/22 05:42:16;;;;;;;5.57;4.80;;;7.40;99.90;;;;;;4978566;28;20454;-69
2021/09/22 05:44:41;;;;;;;5.72;4.60;;;7.40;99.90;;;;;;4976414;28;20179;-67
2021/09/22 05:47:07;;;;;;;7.23;4.87;;;7.50;99.90;;;;;;4992503;28;20185;-67
2021/09/22 05:49:33;;;;;;;6.47;5.80;;;7.50;99.90;;;;;;4995326;28;20202;-68
2021/09/22 05:51:58;;;;;;;5.73;4.67;;;7.50;99.90;;;;;;4995563;28;20543;-66
2021/09/22 05:54:24;;;;;;;6.13;4.70;;;7.60;99.90;;;;;;4995564;28;20175;-68
2021/09/22 05:56:50;;;;;;;8.37;5.50;;;7.70;99.90;;;;;;4994744;28;20174;-68
2021/09/22 05:59:15;;;;;;;8.20;5.67;;;7.80;99.90;;;;;;4995063;28;20534;-68
2021/09/22 06:01:41;;;;;;;10.70;8.60;;;7.90;99.90;;;;;;4994753;28;20442;-69
2021/09/22 06:04:07;;;;;;;8.17;6.50;;;8.00;99.90;;;;;;4994906;28;20235;-68
2021/09/22 06:06:33;;;;;;;10.35;7.07;;;8.20;99.90;;;;;;4994968;28;20522;-68
2021/09/22 06:08:59;;;;;;;8.33;6.20;;;8.40;99.90;;;;;;4995198;28;20188;-68
2021/09/22 06:11:24;;;;;;;13.67;7.70;;;8.70;99.90;;;;;;4994515;28;20171;-67
2021/09/22 06:13:53;;;;;;;11.97;8.73;;;8.80;99.90;;;;;;4957899;28;20176;-67
2021/09/22 06:16:20;;;;;;;10.75;7.55;;;9.00;99.90;;;;;;4974948;28;20191;-69
2021/09/22 06:18:46;;;;;;;14.13;9.02;;;9.10;99.90;;;;;;4975153;28;20264;-68
2021/09/22 06:21:12;;;;;;;12.77;8.50;;;9.20;99.90;;;;;;4975657;28;20191;-68
2021/09/22 06:23:37;;;;;;;7.37;6.20;;;9.20;99.90;;;;;;4975436;28;20579;-68
2021/09/22 06:26:03;;;;;;;9.60;7.03;;;9.20;99.90;;;;;;4975599;28;20393;-69
2021/09/22 06:28:29;;;;;;;10.90;6.90;;;9.30;99.90;;;;;;4975150;28;20594;-69
2021/09/22 06:30:54;;;;;;;10.27;6.57;;;9.40;99.90;;;;;;4975356;28;20183;-68
2021/09/22 06:33:20;;;;;;;8.33;6.13;;;9.50;99.90;;;;;;4975390;28;20182;-69
2021/09/22 06:35:46;;;;;;;9.03;6.87;;;9.60;99.90;;;;;;4957844;28;20290;-67
2021/09/22 06:38:11;;;;;;;11.90;6.30;;;9.70;99.90;;;;;;4974906;28;20176;-67
2021/09/22 06:40:37;;;;;;;9.07;5.83;;;9.90;99.90;;;;;;4975338;28;20180;-69
2021/09/22 06:43:05;;;;;;;10.00;6.57;;;10.00;99.90;;;;;;4975173;28;20283;-70
2021/09/22 06:45:31;;;;;;;9.18;6.68;;;10.30;99.90;;;;;;4975305;28;20584;-70
2021/09/22 06:47:57;;;;;;;8.15;6.43;;;10.60;99.90;;;;;;4974824;28;20564;-69
2021/09/22 06:50:23;;;;;;;7.37;5.13;;;10.90;99.90;;;;;;4974940;28;20263;-65
2021/09/22 06:52:49;;;;;;;8.10;6.72;;;11.10;99.90;;;;;;4975155;28;20584;-65
2021/09/22 06:55:14;;;;;;;7.63;5.70;;;11.30;99.90;;;;;;4975210;28;20208;-65
2021/09/22 06:57:41;;;;;;;9.20;6.67;;;11.40;99.90;;;;;;4974697;28;20176;-65
2021/09/22 07:00:09;;;;;;;6.73;5.77;;;11.40;99.90;;;;;;4974196;28;20204;-65
2021/09/22 07:02:36;;;;;;;6.80;6.07;;;11.60;99.90;;;;;;4975020;28;20531;-64
2021/09/22 07:05:02;;;;;;;5.93;5.03;;;11.70;99.90;;;;;;4974973;28;20249;-65
2021/09/22 07:07:28;;;;;;;6.80;5.83;;;12.00;99.90;;;;;;4974327;28;20392;-66
2021/09/22 07:09:53;;;;;;;9.33;4.73;;;12.20;99.90;;;;;;4974568;28;20396;-66
2021/09/22 07:12:19;;;;;;;8.30;7.00;;;12.40;99.90;;;;;;4974903;28;20533;-66
2021/09/22 07:14:45;;;;;;;5.13;4.63;;;12.60;99.90;;;;;;4974660;28;20243;-66
2021/09/22 07:17:10;;;;;;;6.43;5.80;;;12.80;99.90;;;;;;4974325;28;20186;-66
2021/09/22 07:19:36;;;;;;;7.23;5.63;;;13.10;99.90;;;;;;4974779;28;20194;-66
2021/09/22 07:22:02;;;;;;;6.00;5.40;;;13.20;99.90;;;;;;4974524;28;20205;-66
2021/09/22 07:24:27;;;;;;;5.43;4.93;;;13.20;99.90;;;;;;4974473;28;20179;-65
2021/09/22 07:26:53;;;;;;;7.00;4.97;;;13.30;99.90;;;;;;4974012;28;20414;-66
2021/09/22 07:29:19;;;;;;;8.40;6.40;;;13.50;99.90;;;;;;4974380;28;20195;-65
2021/09/22 07:31:45;;;;;;;6.80;5.90;;;13.60;99.90;;;;;;4974281;28;20246;-66
2021/09/22 07:34:10;;;;;;;13.43;6.10;;;13.70;99.90;;;;;;4974559;28;20176;-67
2021/09/22 07:36:36;;;;;;;6.50;5.57;;;13.80;99.90;;;;;;4974034;28;20531;-65
2021/09/22 07:39:03;;;;;;;6.93;5.40;;;14.00;99.90;;;;;;4974447;28;20191;-66
2021/09/22 07:41:29;;;;;;;5.43;4.73;;;14.00;99.90;;;;;;4974304;28;20172;-68
2021/09/22 07:43:54;;;;;;;5.77;4.57;;;14.10;99.90;;;;;;4974214;28;20462;-68
2021/09/22 07:46:20;;;;;;;7.20;6.03;;;14.30;99.90;;;;;;4956880;28;20722;-68
2021/09/22 07:48:46;;;;;;;5.90;5.10;;;14.60;99.90;;;;;;4973986;28;20301;-69
2021/09/22 07:51:11;;;;;;;7.17;5.27;;;15.20;99.90;;;;;;4974359;28;20191;-69
2021/09/22 07:53:37;;;;;;;6.43;5.30;;;15.70;99.90;;;;;;4974356;28;20182;-69
2021/09/22 07:56:03;;;;;;;8.20;6.97;;;16.40;99.90;;;;;;4974480;28;20735;-69
2021/09/22 07:58:29;;;;;;;5.80;5.00;;;17.00;99.90;;;;;;4973662;28;20263;-68
2021/09/22 08:00:54;;;;;;;5.10;4.60;;;17.70;99.90;;;;;;4974425;28;20496;-68
2021/09/22 08:03:20;;;;;;;5.97;4.93;;;18.30;99.60;;;;;;4974123;28;20200;-68
2021/09/22 08:05:46;;;;;;;4.97;4.47;;;18.90;98.70;;;;;;4974213;28;20171;-67
2021/09/22 08:08:11;;;;;;;8.07;6.40;;;19.60;97.30;;;;;;4973981;28;20179;-68
2021/09/22 08:10:38;;;;;;;5.20;4.70;;;20.30;95.70;;;;;;4974161;28;20184;-69
2021/09/22 08:13:04;;;;;;;6.03;5.43;;;20.90;94.40;;;;;;4974010;28;20203;-74
2021/09/22 08:15:30;;;;;;;12.00;5.53;;;21.50;93.00;;;;;;4974001;28;20382;-69
2021/09/22 08:17:56;;;;;;;5.60;5.10;;;21.90;92.10;;;;;;4973798;28;20418;-69
2021/09/22 08:20:23;;;;;;;6.10;5.43;;;22.20;90.80;;;;;;4973791;28;20687;-70
2021/09/22 08:22:49;;;;;;;5.80;4.70;;;22.40;90.70;;;;;;4973759;28;20428;-69
2021/09/22 08:25:15;;;;;;;4.87;4.40;;;22.50;90.20;;;;;;4973797;28;20419;-69
2021/09/22 08:27:41;;;;;;;7.30;6.23;;;22.90;90.00;;;;;;4973340;28;20418;-69
2021/09/22 08:30:08;;;;;;;8.60;7.70;;;23.00;85.00;;;;;;4973680;28;20430;-69
2021/09/22 08:32:34;;;;;;;6.63;5.60;;;22.90;87.40;;;;;;4973774;28;20422;-70
2021/09/22 08:35:00;;;;;;;5.83;5.33;;;23.10;87.80;;;;;;4973943;28;20910;-69
2021/09/22 08:37:26;;;;;;;6.30;5.70;;;23.40;85.80;;;;;;4973575;28;20255;-69
2021/09/22 08:39:52;;;;;;;5.80;5.20;;;23.50;84.50;;;;;;4977071;28;20867;-69
2021/09/22 08:42:19;;;;;;;6.60;5.90;;;23.90;83.10;;;;;;4977194;28;20192;-69
2021/09/22 08:44:45;;;;;;;7.33;6.63;;;24.20;81.60;;;;;;4977615;28;20443;-66
2021/09/22 08:47:10;;;;;;;6.60;6.00;;;24.20;78.50;;;;;;4976977;28;20374;-68
2021/09/22 08:49:36;;;;;;;7.60;5.67;;;24.20;78.70;;;;;;4977082;28;20790;-68
2021/09/22 08:52:03;;;;;;;6.70;4.80;;;24.20;79.90;;;;;;4977530;28;20179;-68
2021/09/22 08:54:29;;;;;;;8.77;6.13;;;24.10;76.60;;;;;;4977125;28;20263;-68
2021/09/22 08:56:56;;;;;;;6.47;5.87;;;24.00;76.70;;;;;;4976721;28;20550;-67
2021/09/22 08:59:22;;;;;;;6.60;6.00;;;24.10;77.00;;;;;;4976973;28;20423;-68
2021/09/22 09:02:09;;;;;;;6.13;5.53;;;24.50;76.90;;;;;;4977038;28;20949;-67
2021/09/22 09:04:37;;;;;;;6.73;6.17;;;25.10;74.00;;;;;;4977131;28;20271;-68
2021/09/22 09:07:02;;;;;;;6.03;5.43;;;25.50;73.10;;;;;;4976644;28;20408;-68
2021/09/22 09:09:37;;;;;;;9.70;6.60;;;25.70;72.70;;;;;;4976743;28;20436;-69
2021/09/22 09:12:20;;;;;;;6.20;5.70;;;25.70;73.90;;;;;;4976872;28;20507;-67
2021/09/22 09:15:12;;;;;;;6.17;5.57;;;25.70;71.80;;;;;;4959791;28;20510;-67
2021/09/22 09:17:47;;;;;;;7.17;6.53;;;26.20;71.40;;;;;;4959108;28;20420;-67
2021/09/22 09:20:21;;;;;;;7.97;6.17;;;26.60;66.60;;;;;;4976745;28;20475;-67
2021/09/22 09:23:02;;;;;;;6.87;6.27;;;26.40;65.70;;;;;;4976746;28;20787;-67
2021/09/22 09:25:31;;;;;;;6.17;5.67;;;26.40;66.00;;;;;;4976619;28;20775;-67
2021/09/22 09:27:57;;;;;;;7.00;6.30;;;26.10;66.00;;;;;;4976005;28;20408;-67
2021/09/22 09:30:26;;;;;;;6.73;6.13;;;25.90;66.30;;;;;;4976166;28;20443;-67
2021/09/22 09:32:52;;;;;;;6.87;6.23;;;26.00;67.40;;;;;;4959325;28;20390;-67
2021/09/22 09:35:23;;;;;;;11.20;6.20;;;26.10;67.10;;;;;;4976178;28;20411;-67
2021/09/22 09:37:51;;;;;;;7.37;6.07;;;26.00;67.70;;;;;;4976064;28;20646;-67
2021/09/22 09:40:21;;;;;;;6.50;5.90;;;26.30;68.50;;;;;;4976540;28;20530;-68
2021/09/22 09:42:57;;;;;;;5.77;5.27;;;26.40;66.20;;;;;;4976172;28;20433;-68
2021/09/22 09:45:25;;;;;;;6.10;4.80;;;26.60;66.00;;;;;;4976346;28;20787;-68
2021/09/22 09:48:06;;;;;;;5.53;5.13;;;26.80;65.10;;;;;;4975600;28;20849;-68
2021/09/22 09:50:43;;;;;;;5.37;4.87;;;27.00;62.40;;;;;;4975126;28;20486;-68
2021/09/22 09:53:09;;;;;;;5.47;4.97;;;27.10;63.30;;;;;;4975686;28;20501;-67
2021/09/22 09:55:39;;;;;;;4.30;3.63;;;26.80;62.60;;;;;;4975923;28;20902;-67
2021/09/22 09:58:06;;;;;;;4.77;4.37;;;26.70;62.80;;;;;;4975616;28;20483;-67
2021/09/22 10:00:37;;;;;;;4.43;4.03;;;26.50;62.40;;;;;;4976006;28;20440;-67
2021/09/22 10:03:11;;;;;;;5.03;4.13;;;26.50;61.40;;;;;;4975923;28;20579;-67
2021/09/22 10:05:37;;;;;;;5.37;4.97;;;26.40;63.10;;;;;;4976029;28;20482;-68
2021/09/22 10:08:03;;;;;;;5.90;4.57;;;25.80;64.70;;;;;;4974295;28;20498;-67
2021/09/22 10:10:29;;;;;;;4.83;4.43;;;25.40;66.50;;;;;;4973687;28;20192;-69
2021/09/22 10:12:55;;;;;;;4.90;4.40;;;25.30;66.60;;;;;;4973615;28;20183;-67
2021/09/22 10:15:23;;;;;;;4.50;4.17;;;25.20;68.40;;;;;;4974022;28;20299;-66
2021/09/22 10:17:50;;;;;;;4.10;3.70;;;25.20;68.00;;;;;;4973721;28;20757;-68
2021/09/22 10:20:19;;;;;;;4.83;4.43;;;25.40;67.40;;;;;;4973633;28;20410;-67
2021/09/22 10:22:44;;;;;;;4.63;4.00;;;25.60;67.80;;;;;;4974372;28;20549;-69
2021/09/22 10:25:10;;;;;;;4.77;4.17;;;25.80;67.50;;;;;;4975519;28;20905;-67
2021/09/22 10:27:37;;;;;;;6.17;5.57;;;25.80;67.60;;;;;;4975231;28;20543;-67
2021/09/22 10:30:07;;;;;;;4.87;4.47;;;26.00;68.00;;;;;;4975544;28;20498;-67
2021/09/22 10:32:44;;;;;;;4.90;4.43;;;26.20;67.30;;;;;;4975346;28;20402;-67
2021/09/22 10:35:25;;;;;;;6.17;4.53;;;26.20;67.50;;;;;;4975396;28;20503;-67
2021/09/22 10:37:56;;;;;;;5.50;4.53;;;26.00;67.00;;;;;;4975256;28;20398;-67
2021/09/22 10:40:33;;;;;;;5.00;4.53;;;25.90;68.50;;;;;;4975159;28;20410;-66
2021/09/22 10:43:14;;;;;;;4.87;4.33;;;25.50;68.90;;;;;;4975130;28;20443;-67
2021/09/22 10:45:45;;;;;;;7.17;4.20;;;25.30;70.60;;;;;;4975262;28;20524;-67
2021/09/22 10:48:22;;;;;;;4.77;4.27;;;25.60;68.80;;;;;;4974989;28;20431;-67
2021/09/22 10:50:53;;;;;;;10.97;4.43;;;25.80;69.40;;;;;;4974809;28;20434;-67
2021/09/22 10:53:35;;;;;;;3.50;3.30;;;26.00;68.10;;;;;;4974972;28;20583;-67
2021/09/22 10:56:02;;;;;;;3.37;3.10;;;25.70;68.10;;;;;;4974549;28;20442;-68
2021/09/22 10:58:55;;;;;;;2.90;2.70;;;25.70;66.90;;;;;;4974687;28;20825;-68
2021/09/22 11:01:32;;;;;;;3.33;3.00;;;25.80;66.20;;;;;;4973748;28;20433;-66
2021/09/22 11:04:02;;;;;;;2.83;2.63;;;25.70;65.60;;;;;;4974777;28;20516;-66
2021/09/22 11:06:44;;;;;;;2.80;2.60;;;25.10;65.70;;;;;;4974581;28;20401;-66
2021/09/22 11:09:23;;;;;;;2.70;2.50;;;24.60;67.20;;;;;;4974821;28;20482;-66
2021/09/22 11:11:55;;;;;;;3.83;3.00;;;23.80;68.30;;;;;;4974193;28;20386;-66
2021/09/22 11:14:32;;;;;;;4.27;2.80;;;22.90;71.30;;;;;;4974279;28;20885;-66
2021/09/22 11:17:17;;;;;;;2.80;2.60;;;22.30;72.30;;;;;;4974273;28;20395;-66
2021/09/22 11:19:47;;;;;;;3.30;3.00;;;21.70;75.50;;;;;;4957268;28;20400;-66
2021/09/22 11:22:15;;;;;;;2.70;2.40;;;21.40;75.80;;;;;;4956926;28;20455;-66
2021/09/22 11:24:42;;;;;;;2.70;2.50;;;21.20;76.90;;;;;;4974378;28;20420;-68
2021/09/22 11:27:13;;;;;;;3.40;2.93;;;20.90;77.60;;;;;;4956680;28;20423;-66
2021/09/22 11:29:50;;;;;;;2.67;2.43;;;20.80;77.30;;;;;;4974614;28;20410;-66
2021/09/22 11:32:43;;;;;;;2.30;1.80;;;20.70;78.50;;;;;;4974417;28;20467;-66
2021/09/22 11:35:16;;;;;;;2.10;2.00;;;20.50;79.40;;;;;;4971304;28;20487;-65
2021/09/22 11:37:53;;;;;;;3.10;2.90;;;20.40;82.40;;;;;;4974303;28;20436;-66
2021/09/22 11:40:34;;;;;;;2.77;2.53;;;20.50;83.30;;;;;;4974042;28;20398;-66
2021/09/22 11:43:12;;;;;;;2.57;2.37;;;20.50;81.20;;;;;;4974337;28;20487;-67
2021/09/22 11:46:00;;;;;;;4.47;3.60;;;20.40;82.50;;;;;;4974395;28;20402;-65
2021/09/22 11:48:27;;;;;;;2.50;2.30;;;20.40;82.40;;;;;;4974003;28;20454;-66
2021/09/22 11:50:53;;;;;;;3.30;2.67;;;20.50;82.00;;;;;;4974335;28;20418;-67
2021/09/22 11:53:21;;;;;;;2.33;2.13;;;20.70;82.70;;;;;;4974386;28;20451;-66
2021/09/22 11:55:49;;;;;;;2.70;2.47;;;20.70;83.10;;;;;;4974219;28;20183;-66
2021/09/22 11:58:17;;;;;;;3.80;2.90;;;20.70;82.00;;;;;;4973679;28;20423;-66
2021/09/22 12:00:47;;;;;;;2.70;2.50;;;20.70;81.40;;;;;;4973512;28;20418;-65
2021/09/22 12:03:15;;;;;;;2.73;2.53;;;20.70;83.30;;;;;;4954747;29;20546;-65
2021/09/22 12:05:42;;;;;;;2.30;2.10;;;20.40;82.30;;;;;;4954956;29;20438;-65
2021/09/22 12:08:09;;;;;;;3.90;2.47;;;20.30;82.50;;;;;;4954434;29;20416;-67
2021/09/22 12:10:41;;;;;;;3.13;2.53;;;20.30;83.20;;;;;;4954487;28;20466;-67
2021/09/22 12:13:07;;;;;;;2.63;2.43;;;20.30;82.80;;;;;;4955850;28;20391;-68
2021/09/22 12:15:34;;;;;;;2.80;2.60;;;20.20;83.30;;;;;;4958822;29;20380;-67
2021/09/22 12:18:00;;;;;;;1.70;1.60;;;20.20;83.90;;;;;;4957904;29;20185;-67
2021/09/22 12:20:28;;;;;;;2.73;2.50;;;20.30;84.30;;;;;;4958170;28;20440;-67
2021/09/22 12:23:07;;;;;;;2.60;2.40;;;20.30;84.90;;;;;;4958356;29;20455;-67
2021/09/22 12:25:36;;;;;;;2.27;2.00;;;20.40;85.50;;;;;;4958347;29;20413;-67
2021/09/22 12:28:03;;;;;;;2.10;2.00;;;20.40;84.50;;;;;;4958092;29;20954;-68
2021/09/22 12:30:36;;;;;;;1.90;1.80;;;20.50;85.00;;;;;;4957967;28;20418;-67
2021/09/22 12:33:07;;;;;;;3.10;2.23;;;20.60;84.20;;;;;;4956270;29;20420;-67
2021/09/22 12:35:43;;;;;;;1.80;1.70;;;20.60;85.00;;;;;;4956164;29;20395;-67
2021/09/22 12:38:16;;;;;;;1.90;1.80;;;20.40;85.10;;;;;;4956348;29;20419;-66
2021/09/22 12:40:45;;;;;;;2.10;2.00;;;20.40;85.40;;;;;;4956622;29;20502;-67
2021/09/22 12:43:29;;;;;;;2.77;1.73;;;20.40;85.80;;;;;;4956685;29;20591;-66
2021/09/22 12:46:16;;;;;;;2.00;1.90;;;20.30;85.50;;;;;;4956789;29;20397;-67
2021/09/22 12:48:42;;;;;;;1.80;1.60;;;20.30;85.40;;;;;;4957630;28;20527;-66
2021/09/22 12:51:13;;;;;;;1.87;1.77;;;20.30;85.60;;;;;;4957925;29;20436;-66
2021/09/22 12:53:39;;;;;;;1.90;1.80;;;20.20;85.70;;;;;;4958118;29;20384;-66